Time;durP1;ratioP1;P1;durP2;ratioP2;P2;SDS_P1;SDS_P2;PMS_P1;PMS_P2;Temp;Humidity;BMP_temperature;BMP_pressure;BME280_temperature;BME280_humidity;BME280_pressure;Samples;Min_cycle;Max_cycle;Signal;HPM_P1;HPM_P2
2023/02/24 00:01:38;;;;;;;24.00;12.70;;;;;;;3.67;81.92;93841.75;5015398;28;20033;-75
2023/02/24 00:04:07;;;;;;;22.17;13.75;;;;;;;3.39;82.31;93848.44;5018502;28;20432;-76
2023/02/24 00:06:37;;;;;;;26.10;13.25;;;;;;;3.84;81.50;93849.34;5023057;28;20052;-75
2023/02/24 00:09:21;;;;;;;21.00;12.80;;;;;;;4.06;79.43;93833.19;5037740;28;20036;-75
2023/02/24 00:11:57;;;;;;;17.33;10.73;;;;;;;4.11;79.09;93843.69;5018064;28;20580;-75
2023/02/24 00:14:25;;;;;;;21.27;14.05;;;;;;;3.95;78.38;93813.25;5017385;28;20041;-76
2023/02/24 00:16:52;;;;;;;17.95;12.68;;;;;;;4.31;78.51;93842.81;5018796;28;20575;-75
2023/02/24 00:19:21;;;;;;;21.40;12.70;;;;;;;4.36;77.39;93834.84;5018752;28;20084;-75
2023/02/24 00:21:46;;;;;;;20.13;12.57;;;;;;;4.26;76.16;93780.41;5014655;28;20599;-76
2023/02/24 00:24:12;;;;;;;19.50;11.30;;;;;;;4.89;75.14;93828.69;5018909;28;20095;-75
2023/02/24 00:26:38;;;;;;;16.35;11.52;;;;;;;5.02;73.96;93822.75;5034770;28;20025;-76
2023/02/24 00:29:06;;;;;;;21.73;12.05;;;;;;;4.86;74.26;93813.41;5019638;28;20033;-74
2023/02/24 00:31:32;;;;;;;19.27;12.77;;;;;;;4.59;75.66;93834.97;5018799;28;20041;-75
2023/02/24 00:34:01;;;;;;;19.75;12.02;;;;;;;4.48;76.04;93816.88;5021459;28;20374;-74
2023/02/24 00:36:29;;;;;;;18.63;10.95;;;;;;;4.60;76.06;93820.72;5017766;28;20044;-75
2023/02/24 00:39:00;;;;;;;21.60;12.35;;;;;;;4.73;75.38;93824.59;5015920;28;20109;-75
2023/02/24 00:41:28;;;;;;;20.30;11.75;;;;;;;4.72;75.33;93815.13;5019760;28;20056;-75
2023/02/24 00:43:56;;;;;;;18.58;12.50;;;;;;;5.03;73.81;93832.25;5020106;28;20774;-75
2023/02/24 00:46:24;;;;;;;20.70;11.85;;;;;;;4.66;73.72;93782.75;5019064;28;20045;-76
2023/02/24 00:48:54;;;;;;;16.33;11.75;;;;;;;5.17;73.13;93829.75;5021991;28;20041;-75
2023/02/24 00:51:25;;;;;;;16.35;10.93;;;;;;;4.86;74.16;93812.63;5017931;28;20255;-75
2023/02/24 00:53:57;;;;;;;19.90;11.85;;;;;;;4.39;76.35;93808.00;5021931;28;20017;-75
2023/02/24 00:56:25;;;;;;;17.73;11.13;;;;;;;4.55;75.26;93806.84;5039347;28;20029;-75
2023/02/24 00:58:52;;;;;;;18.65;11.05;;;;;;;4.22;77.01;93818.84;5048217;28;20044;-75
2023/02/24 01:01:19;;;;;;;20.20;12.35;;;;;;;4.66;76.48;93813.56;5044182;28;20044;-75
2023/02/24 01:03:49;;;;;;;18.23;11.48;;;;;;;4.51;75.53;93814.47;5043935;28;20044;-74
2023/02/24 01:06:20;;;;;;;16.23;11.00;;;;;;;4.32;76.32;93807.50;5019291;28;20049;-75
2023/02/24 01:08:48;;;;;;;16.05;10.00;;;;;;;3.97;77.42;93811.91;5024914;28;20442;-75
2023/02/24 01:14:14;;;;;;;19.85;10.30;;;;;;;3.83;79.06;93811.72;5028658;28;20515;-76
2023/02/24 01:16:40;;;;;;;18.23;11.55;;;;;;;3.94;78.04;93765.09;5034127;28;20064;-77
2023/02/24 01:19:07;;;;;;;16.17;10.10;;;;;;;3.82;77.81;93783.81;5043600;28;20506;-76
2023/02/24 01:21:33;;;;;;;16.63;10.18;;;;;;;4.24;77.54;93804.38;5030437;28;20542;-77
2023/02/24 01:23:59;;;;;;;17.08;10.18;;;;;;;4.52;76.01;93802.88;5022901;28;20371;-75
2023/02/24 01:26:25;;;;;;;14.95;10.32;;;;;;;4.88;74.41;93800.75;5025050;28;20087;-75
2023/02/24 01:28:52;;;;;;;13.57;10.65;;;;;;;4.35;75.98;93783.28;5026384;28;20462;-78
2023/02/24 01:31:19;;;;;;;16.38;10.50;;;;;;;4.32;76.43;93789.88;5026055;28;20025;-77
2023/02/24 01:33:45;;;;;;;15.18;10.48;;;;;;;4.13;76.46;93773.91;5027617;28;20029;-77
2023/02/24 01:36:16;;;;;;;15.00;9.98;;;;;;;4.35;76.72;93788.53;5044735;28;20029;-77
2023/02/24 01:38:43;;;;;;;16.30;9.90;;;;;;;4.41;76.04;93769.78;5049349;28;20054;-77
2023/02/24 01:41:21;;;;;;;15.75;9.38;;;;;;;5.17;73.24;93792.03;5045925;28;20138;-76
2023/02/24 01:44:28;;;;;;;13.18;8.45;;;;;;;4.90;72.68;93777.53;5045973;28;20510;-77
2023/02/24 01:46:54;;;;;;;10.18;8.48;;;;;;;5.28;71.56;93777.69;5062318;28;20033;-77
2023/02/24 01:49:28;;;;;;;12.32;9.10;;;;;;;4.91;72.12;93786.22;5043199;28;20025;-76
2023/02/24 01:52:03;;;;;;;17.52;10.20;;;;;;;4.50;73.86;93788.44;5050365;28;20052;-77
2023/02/24 01:54:41;;;;;;;;;;;;;;;4.40;74.60;93791.16;5051407;28;20029;-77
2023/02/24 01:57:09;;;;;;;14.25;9.80;;;;;;;4.25;75.08;93784.91;5048781;28;19905;-77
2023/02/24 01:59:35;;;;;;;14.38;9.73;;;;;;;4.55;73.89;93760.19;5039799;28;20056;-78
2023/02/24 02:02:05;;;;;;;18.25;10.27;;;;;;;4.87;72.80;93782.56;5037137;28;20079;-78
2023/02/24 02:04:39;;;;;;;12.07;8.13;;;;;;;5.18;71.06;93777.81;5034563;28;20045;-76
2023/02/24 02:07:09;;;;;;;13.88;8.38;;;;;;;5.21;70.28;93783.28;5034365;28;20041;-78
2023/02/24 02:09:35;;;;;;;16.20;9.30;;;;;;;4.80;72.09;93767.09;5028444;28;20059;-75
2023/02/24 02:12:00;;;;;;;15.23;8.68;;;;;;;5.18;70.97;93778.59;5024085;28;20489;-76
2023/02/24 02:14:28;;;;;;;15.13;9.20;;;;;;;5.16;70.35;93769.38;5027429;28;20064;-78
2023/02/24 02:17:10;;;;;;;13.93;9.30;;;;;;;5.25;70.54;93772.97;5029652;28;20049;-75
2023/02/24 02:20:14;;;;;;;12.80;8.77;;;;;;;5.10;70.24;93776.53;5030995;28;20039;-75
2023/02/24 02:23:05;;;;;;;14.80;8.63;;;;;;;5.34;69.96;93779.19;5034992;28;20033;-75
2023/02/24 02:25:30;;;;;;;13.35;8.38;;;;;;;5.45;68.98;93788.56;5048811;28;20047;-76
2023/02/24 02:28:21;;;;;;;11.88;8.25;;;;;;;5.58;68.68;93786.03;5050246;28;20388;-76
2023/02/24 02:30:49;;;;;;;12.75;8.40;;;;;;;5.99;66.87;93783.69;5037390;28;20049;-77
2023/02/24 02:33:38;;;;;;;11.52;7.63;;;;;;;6.10;65.20;93786.19;5036924;28;20030;-77
2023/02/24 02:36:11;;;;;;;12.80;7.68;;;;;;;5.89;66.77;93789.09;5057137;28;20026;-77
2023/02/24 02:38:53;;;;;;;13.00;7.85;;;;;;;5.85;66.53;93771.47;5054016;28;20048;-77
2023/02/24 02:41:27;;;;;;;12.05;8.20;;;;;;;5.58;67.63;93782.59;5038722;28;20033;-76
2023/02/24 02:44:10;;;;;;;10.80;8.05;;;;;;;5.88;66.00;93782.22;5032285;28;20036;-77
2023/02/24 02:47:28;;;;;;;11.82;7.32;;;;;;;5.40;68.48;93786.78;5031209;28;20675;-76
2023/02/24 02:50:07;;;;;;;11.02;7.15;;;;;;;5.00;69.69;93761.63;5020547;28;20489;-76
2023/02/24 02:52:42;;;;;;;13.57;8.52;;;;;;;4.90;70.58;93784.66;5030411;28;20415;-76
2023/02/24 02:55:32;;;;;;;13.13;7.85;;;;;;;5.03;69.88;93760.28;5030078;28;20041;-76
2023/02/24 02:58:01;;;;;;;13.23;7.85;;;;;;;5.13;69.29;93753.06;5026396;28;20033;-77
2023/02/24 03:00:34;;;;;;;12.45;7.57;;;;;;;4.94;69.97;93762.72;5028970;28;20033;-76
2023/02/24 03:03:06;;;;;;;13.95;8.95;;;;;;;4.93;70.01;93766.44;5028993;28;20085;-76
2023/02/24 03:05:45;;;;;;;12.60;8.25;;;;;;;4.56;71.18;93738.06;5047016;28;20099;-76
2023/02/24 03:08:14;;;;;;;12.88;7.57;;;;;;;4.45;72.53;93767.41;5046432;28;20040;-76
2023/02/24 03:10:43;;;;;;;13.30;9.45;;;;;;;4.59;72.62;93765.72;5045728;28;20025;-77
2023/02/24 03:13:12;;;;;;;11.55;9.02;;;;;;;4.76;70.83;93745.00;5043674;28;20080;-76
2023/02/24 03:15:43;;;;;;;11.82;7.95;;;;;;;5.06;70.39;93770.25;5037208;28;20053;-77
2023/02/24 03:18:17;;;;;;;13.15;8.45;;;;;;;5.53;68.04;93774.75;5023760;28;20037;-76
2023/02/24 03:20:50;;;;;;;12.90;7.57;;;;;;;5.14;69.00;93761.75;5025292;28;20144;-76
2023/02/24 03:23:26;;;;;;;11.45;7.75;;;;;;;5.26;68.82;93774.53;5042914;28;20041;-78
2023/02/24 03:25:57;;;;;;;12.98;8.35;;;;;;;4.92;69.74;93770.16;5049321;28;20041;-77
2023/02/24 03:28:41;;;;;;;9.40;6.45;;;;;;;5.29;69.23;93773.97;5037228;28;20036;-77
2023/02/24 03:31:09;;;;;;;10.43;6.90;;;;;;;5.83;67.25;93777.03;5028848;28;20073;-76
2023/02/24 03:33:40;;;;;;;12.45;7.60;;;;;;;6.19;65.49;93781.84;5028486;28;20409;-76
2023/02/24 03:36:06;;;;;;;10.77;6.97;;;;;;;6.32;64.25;93773.19;5028635;28;20026;-77
2023/02/24 03:38:34;;;;;;;11.15;6.63;;;;;;;6.49;63.51;93773.47;5027213;28;20528;-76
2023/02/24 03:40:59;;;;;;;9.48;7.43;;;;;;;6.59;62.90;93765.41;5025582;28;20370;-77
2023/02/24 03:43:30;;;;;;;10.05;6.93;;;;;;;6.74;62.19;93762.50;5026135;28;20046;-76
2023/02/24 03:45:57;;;;;;;10.80;7.40;;;;;;;6.94;61.56;93766.66;5024653;28;20984;-75
2023/02/24 03:48:25;;;;;;;9.45;6.68;;;;;;;7.05;60.83;93773.31;5024535;28;20064;-76
2023/02/24 03:50:52;;;;;;;9.65;6.00;;;;;;;7.16;60.16;93777.38;5021138;28;20021;-76
2023/02/24 03:53:17;;;;;;;9.95;7.15;;;;;;;7.16;60.13;93766.00;5023200;28;20037;-76
2023/02/24 03:56:00;;;;;;;13.25;9.75;;;;;;;7.20;60.07;93767.78;5023486;28;20065;-77
2023/02/24 03:58:26;;;;;;;15.82;10.25;;;;;;;7.34;59.48;93770.41;5024218;28;20501;-77
2023/02/24 04:01:04;;;;;;;15.43;10.68;;;;;;;7.32;58.57;93751.44;5024010;28;20094;-75
2023/02/24 04:03:51;;;;;;;15.82;9.88;;;;;;;7.39;58.60;93775.63;5039730;28;20064;-76
2023/02/24 04:06:30;;;;;;;13.88;8.45;;;;;;;7.39;58.53;93762.38;5023549;28;20056;-76
2023/02/24 04:09:15;;;;;;;11.98;8.18;;;;;;;7.40;58.72;93779.84;5025910;28;20469;-76
2023/02/24 04:11:52;;;;;;;13.37;8.53;;;;;;;7.32;58.34;93762.00;5042992;28;20048;-76
2023/02/24 04:14:28;;;;;;;10.93;8.20;;;;;;;7.53;58.25;93775.66;5025717;28;20360;-76
2023/02/24 04:17:06;;;;;;;14.35;10.98;;;;;;;7.48;58.10;93771.25;5037748;28;20087;-77
2023/02/24 04:19:37;;;;;;;13.93;9.77;;;;;;;7.52;58.13;93766.91;5046195;28;20118;-76
2023/02/24 04:22:09;;;;;;;19.70;12.48;;;;;;;7.63;57.50;93776.22;5043683;28;20064;-77
2023/02/24 04:24:38;;;;;;;14.85;9.13;;;;;;;7.78;57.31;93769.84;5062287;28;20072;-77
2023/02/24 04:27:06;;;;;;;13.30;8.52;;;;;;;7.60;57.44;93752.97;5045138;28;20017;-76
2023/02/24 04:29:39;;;;;;;12.57;8.30;;;;;;;7.53;57.62;93744.66;5045587;28;20041;-75
2023/02/24 04:32:07;;;;;;;10.45;7.28;;;;;;;7.47;57.73;93743.19;5047178;28;20033;-75
2023/02/24 04:34:33;;;;;;;12.77;8.95;;;;;;;7.43;57.60;93729.00;5045130;28;20037;-76
2023/02/24 04:37:01;;;;;;;13.40;7.50;;;;;;;7.50;57.47;93737.31;5046674;28;20040;-75
2023/02/24 04:39:27;;;;;;;10.88;7.93;;;;;;;7.61;57.22;93751.91;5059248;28;20016;-75
2023/02/24 04:41:53;;;;;;;12.35;7.03;;;;;;;7.52;57.27;93745.75;5047561;28;20774;-76
2023/02/24 04:44:20;;;;;;;14.13;9.90;;;;;;;7.52;57.64;93740.44;5048319;28;20029;-75
2023/02/24 04:46:46;;;;;;;11.45;7.53;;;;;;;7.60;57.03;93721.22;5038155;28;20041;-76
2023/02/24 04:49:14;;;;;;;12.98;7.63;;;;;;;7.64;56.95;93742.59;5026963;28;20064;-75
2023/02/24 04:51:43;;;;;;;13.25;7.80;;;;;;;7.69;56.16;93730.03;5034467;28;20044;-76
2023/02/24 04:54:12;;;;;;;9.98;5.75;;;;;;;6.89;58.53;93742.19;5048452;28;20021;-76
2023/02/24 04:56:40;;;;;;;15.50;8.95;;;;;;;7.42;57.40;93740.66;5051294;28;20044;-75
2023/02/24 04:59:09;;;;;;;11.65;7.05;;;;;;;7.33;57.56;93737.13;5044046;28;20037;-76
2023/02/24 05:01:36;;;;;;;12.48;7.05;;;;;;;7.30;57.07;93727.91;5056218;28;20033;-78
2023/02/24 05:04:01;;;;;;;10.20;7.40;;;;;;;7.39;56.84;93732.50;5047068;28;20416;-78
2023/02/24 05:06:27;;;;;;;9.25;6.05;;;;;;;7.22;57.05;93725.16;5035748;28;20073;-75
2023/02/24 05:08:52;;;;;;;11.00;5.53;;;;;;;7.60;56.40;93747.69;5033556;28;20033;-78
2023/02/24 05:11:18;;;;;;;9.35;6.60;;;;;;;7.42;55.93;93718.69;5036587;28;20076;-79
2023/02/24 05:13:47;;;;;;;7.72;5.43;;;;;;;7.66;55.84;93741.22;5036338;28;20033;-77
2023/02/24 05:16:14;;;;;;;8.70;5.97;;;;;;;7.62;55.73;93750.84;5039100;28;20030;-77
2023/02/24 05:18:41;;;;;;;7.97;5.57;;;;;;;7.60;55.79;93747.69;5037402;28;20060;-78
2023/02/24 05:21:34;;;;;;;9.60;5.75;;;;;;;7.61;55.55;93748.47;5041053;28;20013;-77
2023/02/24 05:24:06;;;;;;;10.55;5.13;;;;;;;7.27;56.48;93759.47;5039702;28;20033;-77
2023/02/24 05:26:34;;;;;;;9.18;5.18;;;;;;;7.34;56.39;93743.22;5053878;28;20041;-78
2023/02/24 05:29:01;;;;;;;8.32;5.03;;;;;;;7.44;56.37;93749.06;5040696;28;20077;-77
2023/02/24 05:31:29;;;;;;;7.95;4.93;;;;;;;7.50;56.24;93752.41;5041396;28;20045;-76
2023/02/24 05:34:01;;;;;;;8.23;4.85;;;;;;;7.55;56.24;93755.72;5030371;28;20041;-77
2023/02/24 05:36:31;;;;;;;6.40;4.80;;;;;;;7.73;55.64;93757.50;5044074;28;20033;-78
2023/02/24 05:38:57;;;;;;;10.48;5.65;;;;;;;7.63;55.05;93744.44;5041048;28;20681;-78
2023/02/24 05:41:31;;;;;;;9.10;5.65;;;;;;;7.63;55.58;93762.97;5039581;28;20506;-77
2023/02/24 05:43:57;;;;;;;9.93;5.15;;;;;;;7.64;55.52;93753.97;5071234;28;20050;-78
2023/02/24 05:46:27;;;;;;;7.93;5.53;;;;;;;7.70;55.61;93759.94;5050559;28;20093;-77
2023/02/24 05:48:58;;;;;;;7.50;4.88;;;;;;;7.68;55.57;93752.28;5040369;28;20034;-77
2023/02/24 05:51:37;;;;;;;8.15;5.53;;;;;;;7.73;55.43;93755.97;5039646;28;20056;-77
2023/02/24 05:54:07;;;;;;;6.13;4.60;;;;;;;7.54;56.22;93758.66;5036869;28;20044;-77
2023/02/24 05:56:35;;;;;;;7.40;5.03;;;;;;;7.27;57.25;93740.94;5039556;28;20701;-78
2023/02/24 05:59:03;;;;;;;12.88;6.25;;;;;;;7.28;57.59;93742.50;5037456;28;20516;-77
2023/02/24 06:01:33;;;;;;;16.67;5.85;;;;;;;7.38;58.11;93749.47;5037993;28;20087;-77
2023/02/24 06:04:04;;;;;;;10.55;6.82;;;;;;;7.44;57.83;93753.56;5038470;28;20128;-78
2023/02/24 06:06:38;;;;;;;7.20;6.00;;;;;;;7.47;58.31;93761.72;5034881;28;20045;-77
2023/02/24 06:09:11;;;;;;;10.23;6.20;;;;;;;7.29;59.38;93768.66;5035968;28;20029;-78
2023/02/24 06:11:39;;;;;;;9.38;5.97;;;;;;;7.45;57.88;93761.22;5036114;28;20034;-78
2023/02/24 06:14:06;;;;;;;10.43;5.90;;;;;;;7.52;58.05;93780.16;5035982;28;20049;-77
2023/02/24 06:16:33;;;;;;;10.63;6.35;;;;;;;7.59;58.38;93777.88;5039053;28;20456;-77
2023/02/24 06:18:59;;;;;;;13.23;8.10;;;;;;;7.57;58.55;93761.53;5034684;28;20073;-77
2023/02/24 06:21:28;;;;;;;12.88;7.18;;;;;;;7.81;57.35;93774.56;5038123;28;20124;-78
2023/02/24 06:23:58;;;;;;;10.98;7.05;;;;;;;7.81;57.74;93779.09;5035796;28;20033;-76
2023/02/24 06:26:28;;;;;;;12.43;8.23;;;;;;;7.75;57.09;93786.34;5039332;28;20037;-77
2023/02/24 06:28:56;;;;;;;12.50;7.78;;;;;;;7.49;58.54;93787.88;5034334;28;20125;-78
2023/02/24 06:31:21;;;;;;;12.05;8.43;;;;;;;7.48;57.79;93765.16;5034160;28;20464;-78
2023/02/24 06:33:47;;;;;;;13.82;9.18;;;;;;;7.54;58.14;93777.97;5036870;28;20049;-77
2023/02/24 06:36:13;;;;;;;10.38;7.28;;;;;;;7.45;59.27;93774.44;5034211;28;20029;-79
2023/02/24 06:38:39;;;;;;;12.25;8.80;;;;;;;7.73;58.10;93783.97;5035923;28;20017;-77
2023/02/24 06:41:09;;;;;;;16.60;8.68;;;;;;;7.54;59.04;93787.78;5049404;28;20048;-77
2023/02/24 06:43:45;;;;;;;18.35;10.27;;;;;;;7.78;57.95;93779.69;5068940;28;20045;-77
2023/02/24 06:46:14;;;;;;;15.00;10.35;;;;;;;7.78;57.90;93769.09;5052251;28;20033;-78
2023/02/24 06:48:41;;;;;;;16.65;10.80;;;;;;;7.75;58.32;93773.09;5049995;28;20057;-77
2023/02/24 06:51:15;;;;;;;16.90;10.30;;;;;;;7.83;57.95;93771.59;5035204;28;20093;-77
2023/02/24 06:53:42;;;;;;;12.45;8.98;;;;;;;7.92;57.72;93773.28;5052830;28;20424;-77
2023/02/24 06:56:18;;;;;;;15.75;8.98;;;;;;;7.94;57.19;93770.31;5052812;28;20044;-77
2023/02/24 06:58:46;;;;;;;15.40;9.88;;;;;;;7.88;57.31;93755.63;5049740;28;20041;-78
2023/02/24 07:01:15;;;;;;;17.52;10.95;;;;;;;7.73;58.47;93761.25;5060027;28;20033;-77
2023/02/24 07:03:59;;;;;;;14.70;10.05;;;;;;;7.92;57.27;93765.34;5029651;28;20041;-78
2023/02/24 07:06:24;;;;;;;14.85;9.20;;;;;;;7.96;56.15;93749.63;5030352;28;20425;-78
2023/02/24 07:08:51;;;;;;;13.90;9.27;;;;;;;7.94;56.84;93757.09;5030568;28;20031;-78
2023/02/24 07:11:18;;;;;;;14.80;10.18;;;;;;;8.05;57.16;93763.75;5028434;28;20371;-78
2023/02/24 07:13:48;;;;;;;17.67;11.50;;;;;;;8.26;56.74;93758.78;5034353;28;20060;-77
2023/02/24 07:16:19;;;;;;;13.00;9.70;;;;;;;7.69;57.13;93751.22;5049009;28;20051;-77
2023/02/24 07:18:47;;;;;;;13.95;9.00;;;;;;;7.83;56.54;93755.72;5042778;28;20500;-77
2023/02/24 07:21:15;;;;;;;12.95;8.20;;;;;;;7.57;56.38;93761.53;5026350;28;20059;-78
2023/02/24 07:23:42;;;;;;;13.00;8.88;;;;;;;6.81;60.21;93735.69;5044087;28;20535;-78
2023/02/24 07:26:13;;;;;;;15.95;9.82;;;;;;;7.39;58.32;93762.38;5028110;28;20083;-76
2023/02/24 07:28:40;;;;;;;15.20;9.98;;;;;;;6.97;59.88;93762.66;5032097;28;20037;-76
2023/02/24 07:31:08;;;;;;;15.05;8.65;;;;;;;7.12;59.28;93735.94;5036420;28;20045;-76
2023/02/24 07:33:37;;;;;;;14.85;9.35;;;;;;;7.44;58.50;93753.56;5026445;28;20036;-76
2023/02/24 07:36:13;;;;;;;14.52;9.98;;;;;;;7.49;58.09;93741.03;5026741;28;20898;-77
2023/02/24 07:38:40;;;;;;;14.57;9.32;;;;;;;7.06;59.01;93745.03;5043987;28;20037;-77
2023/02/24 07:41:07;;;;;;;15.70;10.82;;;;;;;6.24;61.45;93708.63;5048299;28;20035;-76
2023/02/24 07:43:35;;;;;;;16.95;11.15;;;;;;;6.75;61.40;93753.47;5029615;28;20466;-76
2023/02/24 07:46:18;;;;;;;18.30;11.23;;;;;;;6.41;62.08;93735.28;5032543;28;20037;-76
2023/02/24 07:48:45;;;;;;;18.27;10.55;;;;;;;6.81;61.51;93754.97;5040619;28;20049;-75
2023/02/24 07:51:13;;;;;;;14.88;10.00;;;;;;;7.21;59.00;93758.75;5040333;28;20473;-75
2023/02/24 07:53:39;;;;;;;16.02;9.63;;;;;;;7.11;58.95;93755.50;5046280;28;20077;-75
2023/02/24 07:56:16;;;;;;;15.25;10.20;;;;;;;6.98;59.35;93738.56;5046348;28;20041;-77
2023/02/24 07:58:58;;;;;;;16.58;10.30;;;;;;;6.69;61.17;93733.53;5046566;28;20285;-76
2023/02/24 08:01:26;;;;;;;18.73;11.32;;;;;;;6.33;62.89;93745.72;5046494;28;20033;-77
2023/02/24 08:03:59;;;;;;;19.83;10.80;;;;;;;6.33;62.79;93735.94;5037363;28;20071;-77
2023/02/24 08:06:42;;;;;;;18.65;12.95;;;;;;;6.46;62.36;93742.34;5020998;28;20117;-77
2023/02/24 08:09:17;;;;;;;16.35;11.73;;;;;;;6.68;61.03;93739.09;5059944;28;20087;-75
2023/02/24 08:11:44;;;;;;;;;;;;;;;6.22;62.63;93736.38;5045927;28;20102;-77
2023/02/24 08:14:12;;;;;;;17.42;11.70;;;;;;;6.49;62.28;93722.50;5043844;28;19927;-77
2023/02/24 08:16:41;;;;;;;17.98;11.00;;;;;;;6.92;61.57;93736.28;5060635;28;20087;-78
2023/02/24 08:19:13;;;;;;;18.67;11.38;;;;;;;7.05;60.23;93711.72;5059948;28;20052;-77
2023/02/24 08:21:40;;;;;;;21.35;11.60;;;;;;;7.57;59.24;93731.63;5041761;28;20625;-78
2023/02/24 08:24:16;;;;;;;16.65;12.45;;;;;;;7.06;58.98;93722.03;5044830;28;20033;-76
2023/02/24 08:26:57;;;;;;;20.60;12.55;;;;;;;6.43;61.81;93721.78;5047338;28;20488;-77
2023/02/24 08:29:22;;;;;;;21.08;13.90;;;;;;;6.05;63.35;93702.56;5051054;28;20037;-76
2023/02/24 08:31:48;;;;;;;21.73;12.35;;;;;;;5.96;64.13;93725.38;5050686;28;20052;-77
2023/02/24 08:34:16;;;;;;;20.95;12.50;;;;;;;6.85;61.34;93729.53;5047102;28;20033;-77
2023/02/24 08:36:47;;;;;;;21.13;12.73;;;;;;;7.16;59.93;93711.25;5046142;28;20520;-78
2023/02/24 08:39:13;;;;;;;20.65;12.43;;;;;;;7.54;59.49;93726.91;5030217;28;20509;-77
2023/02/24 08:41:49;;;;;;;21.83;12.13;;;;;;;7.52;58.00;93726.44;5064737;28;20487;-77
2023/02/24 08:44:19;;;;;;;26.30;13.35;;;;;;;7.31;58.51;93707.53;5047530;28;20484;-77
2023/02/24 08:46:48;;;;;;;24.08;12.10;;;;;;;6.36;62.35;93692.34;5052980;28;20029;-78
2023/02/24 08:49:15;;;;;;;22.20;11.20;;;;;;;6.59;62.07;93701.19;5047308;28;20044;-78
2023/02/24 08:51:43;;;;;;;18.58;12.73;;;;;;;7.09;60.05;93720.66;5046243;28;20037;-76
2023/02/24 08:54:16;;;;;;;19.88;12.40;;;;;;;6.65;61.74;93721.19;5049846;28;20051;-77
2023/02/24 08:56:47;;;;;;;19.45;12.70;;;;;;;6.22;64.38;93723.16;5054613;28;20041;-76
2023/02/24 08:59:27;;;;;;;20.70;12.65;;;;;;;6.53;62.88;93703.13;5043069;28;20040;-77
2023/02/24 09:02:16;;;;;;;20.35;12.10;;;;;;;7.01;61.83;93723.97;5033296;28;20804;-78
2023/02/24 09:04:43;;;;;;;21.60;11.18;;;;;;;7.19;60.83;93717.81;5026787;28;20041;-77
2023/02/24 09:07:14;;;;;;;19.83;11.65;;;;;;;6.76;62.25;93707.47;5044350;28;20061;-77
2023/02/24 09:09:41;;;;;;;24.63;12.65;;;;;;;6.57;63.21;93719.97;5027428;28;20235;-76
2023/02/24 09:12:09;;;;;;;22.40;12.40;;;;;;;6.13;64.94;93703.75;5041275;28;20370;-78
2023/02/24 09:14:36;;;;;;;20.75;12.32;;;;;;;6.54;64.20;93699.44;5021754;28;20160;-78
2023/02/24 09:25:56;;;;;;;24.13;12.23;;;;;;;6.81;63.63;93709.25;5035515;28;20094;-77
2023/02/24 09:28:08;;;;;;;18.88;11.68;;;;;;;6.66;63.39;93709.50;5029546;28;20049;-77
2023/02/24 09:30:52;;;;;;;23.67;12.23;;;;;;;6.57;64.48;93708.63;5028658;28;20666;-77
2023/02/24 09:33:49;;;;;;;20.95;11.40;;;;;;;6.58;64.35;93710.97;5027758;28;20076;-77
2023/02/24 09:36:26;;;;;;;18.50;11.88;;;;;;;7.20;63.21;93700.84;5021202;28;20041;-76
2023/02/24 09:41:32;;;;;;;22.02;10.77;;;;;;;7.58;60.59;93702.19;5047379;28;20112;-78
2023/02/24 09:44:17;;;;;;;20.02;11.50;;;;;;;7.81;59.18;93697.78;5046311;28;20032;-78
2023/02/24 09:46:53;;;;;;;22.77;12.93;;;;;;;7.16;61.86;93694.59;5044971;28;20040;-77
2023/02/24 09:49:22;;;;;;;21.17;11.48;;;;;;;7.31;61.79;93702.22;5047615;28;20041;-77
2023/02/24 09:51:59;;;;;;;24.35;11.23;;;;;;;7.88;59.54;93673.53;5057795;28;20041;-76
2023/02/24 09:54:30;;;;;;;25.45;13.38;;;;;;;7.13;59.98;93680.13;5041730;28;20036;-75
2023/02/24 09:57:15;;;;;;;25.00;11.90;;;;;;;7.43;61.29;93693.81;5038646;28;20746;-76
2023/02/24 10:00:23;;;;;;;22.70;12.27;;;;;;;7.85;59.40;93690.03;5055171;28;20198;-76
2023/02/24 10:03:23;;;;;;;24.95;11.45;;;;;;;7.80;58.18;93674.25;5038377;28;20043;-76
2023/02/24 10:06:10;;;;;;;21.77;12.10;;;;;;;6.83;61.51;93670.88;5046778;28;20055;-76
2023/02/24 10:08:48;;;;;;;17.33;10.68;;;;;;;7.58;60.86;93682.91;5027794;28;20037;-76
2023/02/24 10:11:14;;;;;;;21.15;12.48;;;;;;;7.88;58.17;93647.06;5021784;28;20601;-79
2023/02/24 10:13:53;;;;;;;25.58;12.50;;;;;;;7.86;58.26;93625.41;5039650;28;20029;-75
2023/02/24 10:16:25;;;;;;;23.45;12.35;;;;;;;8.30;57.36;93651.91;5047085;28;20056;-76
2023/02/24 10:19:13;;;;;;;17.48;11.50;;;;;;;8.56;56.62;93644.88;5045682;28;20044;-76
2023/02/24 10:22:29;;;;;;;18.92;10.98;;;;;;;8.03;58.01;93644.06;5038399;28;20513;-76
2023/02/24 10:25:17;;;;;;;20.27;10.95;;;;;;;8.70;55.69;93646.69;4980112;28;20037;-77
2023/02/24 10:28:20;;;;;;;25.80;12.40;;;;;;;9.08;54.82;93625.75;4982621;28;20137;-76
2023/02/24 10:31:08;;;;;;;18.92;11.93;;;;;;;8.67;54.74;93628.69;5010571;28;20033;-76
2023/02/24 10:33:37;;;;;;;25.13;12.95;;;;;;;7.86;57.24;93617.47;5038158;28;20057;-76
2023/02/24 10:36:49;;;;;;;22.15;14.20;;;;;;;7.29;59.48;93599.34;5022027;28;20021;-76
2023/02/24 10:39:25;;;;;;;21.77;12.75;;;;;;;7.36;60.02;93617.47;5037403;28;20500;-76
2023/02/24 10:41:56;;;;;;;27.13;14.43;;;;;;;7.18;60.61;93623.69;5004133;28;20033;-76
2023/02/24 10:44:34;;;;;;;30.92;14.30;;;;;;;7.23;61.15;93610.34;5008014;28;20656;-75
2023/02/24 10:47:11;;;;;;;26.48;12.38;;;;;;;7.47;60.35;93600.31;5032688;28;20041;-75
2023/02/24 10:49:56;;;;;;;21.00;12.32;;;;;;;7.20;60.94;93587.91;5032461;28;20044;-75
2023/02/24 10:55:27;;;;;;;21.75;12.98;;;;;;;7.66;60.08;93603.59;5034558;28;20056;-76
2023/02/24 10:58:05;;;;;;;24.05;12.98;;;;;;;8.07;58.91;93595.47;5042943;28;20067;-75
2023/02/24 11:01:11;;;;;;;26.38;13.90;;;;;;;7.37;60.67;93594.44;5017494;28;20033;-76
2023/02/24 11:04:00;;;;;;;19.08;12.25;;;;;;;7.88;60.24;93572.91;5015121;28;20491;-76
2023/02/24 11:17:57;;;;;;;22.80;13.23;;;;;;;8.23;58.06;93565.97;5035187;28;20681;-77
2023/02/24 11:20:27;;;;;;;;;;;;;;;7.74;59.21;93557.09;5032020;28;20045;-76
2023/02/24 11:22:54;;;;;;;23.88;13.30;;;;;;;7.53;59.54;93545.41;5035203;28;19924;-75
2023/02/24 11:25:39;;;;;;;27.65;13.88;;;;;;;7.43;59.82;93535.06;5032312;28;20152;-76
2023/02/24 11:28:15;;;;;;;22.27;13.43;;;;;;;7.87;59.46;93545.69;5031019;28;20083;-76
2023/02/24 11:30:55;;;;;;;21.92;11.93;;;;;;;7.88;59.13;93527.91;5024523;28;20079;-77
2023/02/24 11:33:41;;;;;;;23.60;13.35;;;;;;;8.10;58.52;93527.88;5034107;28;20033;-75
2023/02/24 11:36:28;;;;;;;22.67;12.85;;;;;;;8.17;57.62;93538.81;5012524;28;20583;-76
2023/02/24 11:39:21;;;;;;;22.85;12.60;;;;;;;7.88;58.62;93517.31;5007613;28;20052;-75
2023/02/24 11:41:51;;;;;;;22.00;12.57;;;;;;;7.80;59.28;93515.41;5027158;28;20127;-75
2023/02/24 11:44:27;;;;;;;23.27;13.82;;;;;;;7.66;59.91;93512.81;5016116;28;20060;-76
2023/02/24 11:46:56;;;;;;;;;;;;;;;8.01;58.50;93511.19;5027825;28;20069;-75
2023/02/24 11:49:40;;;;;;;21.85;13.75;;;;;;;7.78;59.08;93485.81;5031391;28;19925;-76
2023/02/24 11:52:16;;;;;;;22.38;12.80;;;;;;;8.40;57.61;93490.00;5026978;28;20037;-75
2023/02/24 11:54:47;;;;;;;28.35;14.30;;;;;;;8.94;56.08;93482.66;5030161;28;20079;-75
2023/02/24 11:57:20;;;;;;;20.92;12.88;;;;;;;9.09;55.35;93482.19;5033174;28;20055;-76
2023/02/24 12:00:24;;;;;;;25.92;13.82;;;;;;;9.16;55.20;93482.53;5047845;28;20582;-75
2023/02/24 12:03:08;;;;;;;23.92;13.30;;;;;;;9.29;54.35;93478.19;5033318;28;20813;-77
2023/02/24 12:05:38;;;;;;;21.65;13.45;;;;;;;9.22;54.03;93440.72;5030992;28;20047;-76
2023/02/24 12:08:27;;;;;;;25.50;15.68;;;;;;;9.11;54.52;93466.78;5032371;28;20045;-77
2023/02/24 12:11:31;;;;;;;24.63;13.70;;;;;;;9.72;54.77;93467.53;5033759;28;20586;-77
2023/02/24 12:14:15;;;;;;;24.95;12.20;;;;;;;10.37;52.51;93458.44;5033979;28;20033;-77
2023/02/24 12:16:46;;;;;;;22.98;12.63;;;;;;;9.86;52.35;93449.53;5048663;28;20037;-75
2023/02/24 12:19:21;;;;;;;27.20;13.75;;;;;;;9.35;53.58;93429.94;5029906;28;20066;-76
2023/02/24 12:21:52;;;;;;;22.95;12.30;;;;;;;10.19;52.71;93429.25;5029967;28;20116;-77
2023/02/24 12:24:20;;;;;;;22.42;13.18;;;;;;;10.20;51.21;93420.16;5031053;28;20380;-76
2023/02/24 12:26:51;;;;;;;19.92;12.93;;;;;;;9.39;53.30;93446.78;5012115;28;20022;-76
2023/02/24 12:29:41;;;;;;;21.25;13.70;;;;;;;9.60;53.26;93446.91;5009165;28;20084;-75